• Join FlightAware (Why Join?)
  • Login
  • US Flag 
03:03PM EDT


 

Airport Tracker/Info


-or-


 

Live Flight TrackerFlight Track Log ✈ UPS1189 ✈ 14-May-2014 ✈ KPHL - KSDF

Flight Track Log - Related Links

Times and Time Zones

All times are in EDT time to prevent confusion due to time zone crossing. See the UPS1189 flight status page for this flight to view local times or setup timezone preferences in your user account.

Time Position Orientation Groundspeed Altitude Reporting Facility
EDT Latitude Longitude Course Direction KTS MPH feet Rate Location/Type
10:14PM 39.8739 -75.2295 72° East 153 176 800  Level FlightAware ADS-B (KPHL)
10:14PM 39.8836 -75.2000 63° Northeast 191 220 1,700 1,560 Climbing FlightAware ADS-B (KPHL)
10:15PM 39.8924 -75.1786 62° Northeast 219 252 2,000 1,740 Climbing FlightAware ADS-B (KPHL)
10:15PM 39.9025 -75.1545 61° Northeast 243 280 2,700 2,220 Climbing FlightAware ADS-B (KWWD)
10:15PM 39.9152 -75.1273 53° Northeast 265 305 3,500 2,400 Climbing FlightAware ADS-B (KWWD)
10:15PM 39.9183 -75.1230 45° Northeast 271 312 3,700 2,520 Climbing FlightAware ADS-B (KPHL)
10:16PM 39.9354 -75.1106 18° North 288 331 4,300 2,700 Climbing FlightAware ADS-B (KWWD)
10:16PM 39.9478 -75.1086 North 290 334 4,800 3,180 Climbing FlightAware ADS-B (KWWD)
10:16PM 39.9560 -75.1097 351° North 291 335 5,100 3,300 Climbing FlightAware ADS-B (KPHL)
10:16PM 39.9599 -75.1110 342° North 284 327 5,300 3,180 Climbing FlightAware ADS-B (KWWD)
10:16PM 39.9746 -75.1199 329° Northwest 286 329 5,900 3,000 Climbing FlightAware ADS-B (KWWD)
10:16PM 39.9842 -75.1322 308° West 287 330 6,400 3,000 Climbing FlightAware ADS-B (KWWD)
10:16PM 39.9858 -75.1351 299° West 290 334 6,700 3,120 Climbing FlightAware ADS-B (KPHL)
10:17PM 39.9929 -75.1652 275° West 284 327 7,500 3,300 Climbing FlightAware ADS-B (KPHL)
10:17PM 39.9919 -75.1849 264° West 279 321 8,300 4,320 Climbing FlightAware ADS-B (KPHL)
10:17PM 39.9871 -75.2267 259° West 286 329 9,300 2,280 Climbing FlightAware ADS-B (KOQN)
10:17PM 39.9848 -75.2422 259° West 289 333 9,500 660 Climbing FlightAware ADS-B (KPHL)
10:18PM 39.9813 -75.2667 259° West 314 361 9,700 480 Climbing FlightAware ADS-B
10:18PM 39.9749 -75.3056 259° West 341 392 9,800 120 Climbing FlightAware ADS-B (KWWD)
10:18PM 39.9685 -75.3475 259° West 349 402 9,800 -180 Level FlightAware ADS-B (KWWD)
10:19PM 39.9649 -75.3729 259° West 346 398 9,700  Descending FlightAware ADS-B
10:19PM 39.9593 -75.4106 259° West 343 395 9,800 840 Climbing FlightAware ADS-B (KWWD)
10:19PM 39.9531 -75.4495 259° West 351 404 10,200 1,980 Climbing FlightAware ADS-B (KWWD)
10:19PM 39.9521 -75.4558 258° West 355 409 10,700 3,360 Climbing FlightAware ADS-B
10:19PM 39.9478 -75.4819 258° West 357 411 11,100 2,160 Climbing FlightAware ADS-B
10:20PM 39.9428 -75.5132 258° West 357 411 11,500 1,200 Climbing FlightAware ADS-B
10:20PM 39.9393 -75.5352 260° West 358 412 11,600 600 Climbing FlightAware ADS-B (KWWD)
10:20PM 39.9360 -75.5558 260° West 358 412 11,700 420 Climbing FlightAware ADS-B (KWWD)
10:21PM 39.9262 -75.6185 260° West 360 414 11,900 1,800 Climbing FlightAware ADS-B (KWWD)
10:21PM 39.9190 -75.6749 264° West 368 423 13,500 3,240 Climbing FlightAware ADS-B
10:21PM 39.9177 -75.6961 266° West 372 428 13,900 3,600 Climbing FlightAware ADS-B (KDCA)
10:22PM 39.9162 -75.7517 268° West 382 440 15,300 3,540 Climbing FlightAware ADS-B
10:22PM 39.9153 -75.7944 269° West 388 447 16,400 3,600 Climbing FlightAware ADS-B
10:22PM 39.9150 -75.8138 269° West 392 451 17,100 3,660 Climbing FlightAware ADS-B
10:22PM 39.9144 -75.8449 270° West 394 453 17,700 3,660 Climbing FlightAware ADS-B (KWWD)
10:22PM 39.9141 -75.8698 270° West 395 455 18,400 3,180 Climbing FlightAware ADS-B (KWWD)
10:23PM 39.9128 -75.9436 270° West 406 467 19,900 3,060 Climbing FlightAware ADS-B (KWWD)
10:23PM 39.9117 -75.9907 269° West 413 475 20,900 3,000 Climbing FlightAware ADS-B (KWWD)
10:23PM 39.9111 -76.0168 269° West 415 478 21,400 3,000 Climbing FlightAware ADS-B (KWWD)
10:24PM 39.9100 -76.0657 269° West 420 483 22,400 2,520 Climbing FlightAware ADS-B (KWWD)
10:24PM 39.9097 -76.0785 268° West 427 491 23,500 2,580 Climbing FlightAware ADS-B
10:24PM 39.9083 -76.1376 271° West 432 497 24,400 2,460 Climbing FlightAware ADS-B (KAPG)
10:25PM 39.9084 -76.2052 271° West 439 505 24,900 1,920 Climbing FlightAware ADS-B
10:25PM 39.9052 -76.2708 260° West 441 507 25,500 3,000 Climbing FlightAware ADS-B (KWWD)
10:25PM 39.9026 -76.2869 257° West 442 509 26,000 3,780 Climbing FlightAware ADS-B (KAPG)
10:25PM 39.9008 -76.2962 260° West 442 509 26,200 2,820 Climbing FlightAware ADS-B (KDCA)
10:25PM 39.9026 -76.2869 248° West 441 507 27,000 2,340 Climbing FlightAware ADS-B
10:26PM 39.8720 -76.3945 249° West 444 511 27,700 2,280 Climbing FlightAware ADS-B (KWWD)
10:26PM 39.8516 -76.4586 247° West 453 521 29,300 2,640 Climbing FlightAware ADS-B (KAPG)
10:27PM 39.8143 -76.5724 248° West 441 507 30,900 2,520 Climbing FlightAware ADS-B (KWWD)
10:28PM 39.7900 -76.6466 247° West 447 514 32,000 2,280 Climbing FlightAware ADS-B (KWWD)
10:28PM 39.7857 -76.6595 247° West 446 513 32,400 2,160 Climbing FlightAware ADS-B (KAPG)
10:28PM 39.7495 -76.7691 248° West 437 503 33,800 1,140 Climbing FlightAware ADS-B (KWWD)
10:29PM 39.7179 -76.8643 247° West 435 501 34,000 120 Climbing FlightAware ADS-B (KAPG)
10:30PM 39.6917 -76.9431 247° West 431 496 34,000  Level FlightAware ADS-B (KPHL)
10:30PM 39.6627 -77.0302 248° West 428 493 34,000  Level FlightAware ADS-B (KWWD)
10:31PM 39.6335 -77.1176 248° West 428 493 34,000  Level FlightAware ADS-B (KWWD)
10:31PM 39.6097 -77.1887 248° West 427 491 34,000  Level FlightAware ADS-B (KWWD)
10:32PM 39.5902 -77.2465 247° West 430 495 34,000  Level FlightAware ADS-B (KAPG)
10:33PM 39.5168 -77.4639 247° West 429 494 34,000  Level FlightAware ADS-B (KDAA)
10:34PM 39.4912 -77.5392 247° West 428 493 34,000  Level FlightAware ADS-B (KDAA)
10:34PM 39.4875 -77.5502 247° West 425 489 34,000  Level FlightAware ADS-B (KWWD)
10:34PM 39.4844 -77.5591 247° West 428 493 34,000  Level FlightAware ADS-B (KDAA)
10:35PM 39.4459 -77.6724 247° West 427 491 34,000  Level FlightAware ADS-B (KDAA)
10:35PM 39.4261 -77.7303 247° West 424 488 34,000  Level FlightAware ADS-B (KWWD)
10:35PM 39.4195 -77.7495 247° West 427 491 34,000  Level FlightAware ADS-B (KDAA)
10:36PM 39.4161 -77.7594 247° West 427 491 34,000  Level FlightAware ADS-B (KDAA)
10:36PM 39.3932 -77.8255 247° West 427 491 34,000  Level FlightAware ADS-B (KDAA)
10:37PM 39.3368 -77.9716 243° Southwest 426 490 34,000  Level FlightAware ADS-B (KDAA)
10:37PM 39.3348 -77.9766 243° Southwest 427 491 34,000  Level FlightAware ADS-B (KWWD)
10:37PM 39.3325 -77.9825 243° Southwest 426 490 34,000  Level FlightAware ADS-B (KDAA)
10:38PM 39.2835 -78.1054 243° Southwest 426 490 34,000  Level FlightAware ADS-B (KWWD)
10:38PM 39.2590 -78.1666 243° Southwest 423 487 34,000  Level FlightAware ADS-B (KDAA)
10:38PM 39.2516 -78.1851 243° Southwest 422 486 34,000  Level FlightAware ADS-B (KWWD)
10:39PM 39.2158 -78.2745 243° Southwest 415 478 34,000  Level FlightAware ADS-B (KDAA)
10:40PM 39.1783 -78.3679 243° Southwest 414 476 34,000  Level FlightAware ADS-B (KDAA)
10:40PM 39.1474 -78.4449 243° Southwest 410 472 34,000  Level FlightAware ADS-B (KDAA)
10:41PM 39.1388 -78.4659 243° Southwest 409 471 34,000  Level FlightAware ADS-B (KDAA)
10:41PM 39.0980 -78.5739 252° West 409 471 34,000  Level FlightAware ADS-B (KDAA)
10:42PM 39.0952 -78.5874 256° West 409 471 34,000  Level FlightAware ADS-B (KWWD)
10:42PM 39.0699 -78.7093 254° West 417 480 34,000  Level FlightAware ADS-B (KWWD)
10:43PM 39.0526 -78.7816 253° West 414 476 34,000  Level FlightAware ADS-B (KWWD)
10:44PM 39.0266 -78.8850 252° West 416 479 34,000  Level FlightAware ADS-B (KWWD)
10:45PM 38.9779 -79.0875 254° West 414 476 34,000  Level FlightAware ADS-B (KWWD)
10:46PM 38.9389 -79.2513 254° West 413 475 34,000  Level FlightAware ADS-B (KWWD)
10:47PM 38.9212 -79.3255 254° West 412 474 34,000  Level FlightAware ADS-B (KWWD)
10:48PM 38.8946 -79.4363 254° West 410 472 34,000  Level FlightAware ADS-B (KWWD)
10:49PM 38.8567 -79.6117 254° West 417 480 34,000  Level Washington Center
10:50PM 38.8225 -79.7539 253° West 417 480 34,000  Level Washington Center
10:51PM 38.7792 -79.9125 251° West 411 473 34,000  Level Indianapolis Center
10:52PM 38.7450 -80.0514 253° West 410 472 34,000  Level Indianapolis Center
10:53PM 38.7097 -80.1939 252° West 410 472 34,000  Level Indianapolis Center
10:54PM 38.6764 -80.3283 252° West 409 471 34,000  Level Indianapolis Center
10:55PM 38.6408 -80.4700 252° West 408 470 34,000  Level Indianapolis Center
10:56PM 38.6072 -80.6036 252° West 407 468 34,000  Level Indianapolis Center
10:57PM 38.5725 -80.7414 252° West 407 468 34,000  Level Indianapolis Center
10:58PM 38.5372 -80.8792 252° West 407 468 34,000  Level Indianapolis Center
10:59PM 38.5022 -81.0164 252° West 406 467 34,000  Level Indianapolis Center
11:00PM 38.4642 -81.1519 250° West 405 466 34,000  Level Indianapolis Center
11:01PM 38.4075 -81.2750 240° Southwest 402 463 34,000  Level Indianapolis Center
11:02PM 38.3517 -81.3983 240° Southwest 400 460 34,000  Level Indianapolis Center
11:03PM 38.2994 -81.5242 242° Southwest 400 460 34,000  Level Indianapolis Center
11:04PM 38.2683 -81.6619 254° West 401 461 34,000  Level Indianapolis Center
11:05PM 38.2269 -81.8247 252° West 401 461 34,000  Level Indianapolis Center
11:06PM 38.1942 -81.9608 253° West 401 461 34,000 -420 Level Indianapolis Center
11:07PM 38.1603 -82.0972 253° West 406 467 33,200 -720 Descending Indianapolis Center
11:08PM 38.1261 -82.2358 253° West 409 471 32,600 -180 Descending Indianapolis Center
11:14PM 38.0787 -83.0592 283° West 412 474 32,000 -120 Descending FlightAware ADS-B (KPMH)
11:15PM 38.1065 -83.2171 283° West 412 474 32,000  Level FlightAware ADS-B (KPMH)
11:16PM 38.1195 -83.2900 282° West 412 474 32,000 -540 Level FlightAware ADS-B (KPMH)
11:21PM 37.8937 -83.8619 239° Southwest 368 423 29,400 -900 Descending FlightAware ADS-B (KBRY)
11:23PM 37.7720 -84.1166 239° Southwest 351 404 25,900 -1,200 Descending FlightAware ADS-B (KBRY)
11:25PM 37.6593 -84.3490 238° Southwest 346 398 24,000 -600 Descending FlightAware ADS-B (KBRY)
11:26PM 37.6192 -84.4305 238° Southwest 344 396 24,000 -1,200 Level FlightAware ADS-B (KCVG)
11:28PM 37.5520 -84.5664 237° Southwest 342 394 21,500 -2,220 Descending FlightAware ADS-B (KBRY)
11:28PM 37.5179 -84.6348 238° Southwest 331 381 20,100 -2,580 Descending FlightAware ADS-B (KBRY)
11:29PM 37.4848 -84.7175 273° West 319 367 17,200 -1,980 Descending FlightAware ADS-B (KBRY)
11:31PM 37.4928 -84.9592 272° West 296 341 14,100 -1,140 Descending FlightAware ADS-B (KBRY)
11:33PM 37.5153 -85.0851 316° Northwest 328 377 13,600 -720 Descending FlightAware ADS-B (KBRY)
11:34PM 37.5894 -85.1482 328° Northwest 323 372 12,500 -1,200 Descending FlightAware ADS-B (KBRY)
11:34PM 37.6622 -85.2069 326° Northwest 317 365 11,300 -960 Descending FlightAware ADS-B (KBRY)
11:35PM 37.7341 -85.2675 326° Northwest 312 359 10,700 -900 Descending FlightAware ADS-B (KBRY)
11:36PM 37.7909 -85.3151 326° Northwest 303 349 9,600 -1,320 Descending FlightAware ADS-B (KBRY)
11:37PM 37.8352 -85.3524 327° Northwest 305 351 8,400 -1,260 Descending FlightAware ADS-B (KBRY)
11:38PM 37.9462 -85.4449 327° Northwest 297 342 7,100 -660 Descending FlightAware ADS-B (KBRY)
11:39PM 38.0020 -85.4919 326° Northwest 302 348 7,100 -660 Level FlightAware ADS-B (KBRY)
11:42PM 38.1623 -85.6046 339° North 296 341 5,100 -660 Descending FlightAware ADS-B (KBRY)
11:42PM 38.2305 -85.6377 339° North 247 284 5,100  Level FlightAware ADS-B (KBRY)
11:43PM 38.2928 -85.6626 346° North 229 264 5,100  Level FlightAware ADS-B (KBRY)
11:44PM 38.3550 -85.6825 346° North 230 265 5,100 -600 Level FlightAware ADS-B (KBRY)
11:45PM 38.4016 -85.6983 345° North 229 264 4,100 -900 Descending FlightAware ADS-B (KBRY)
11:46PM 38.4258 -85.7066 345° North 230 265 4,100  Level FlightAware ADS-B (KJVY)
11:46PM 38.4458 -85.7137 326° Northwest 226 260 4,100  Level FlightAware ADS-B (KJVY)
11:46PM 38.4641 -85.7365 321° Northwest 224 258 4,100  Level FlightAware ADS-B (KBRY)
11:48PM 38.4282 -85.7970 198° South 171 197 4,100 -120 Level FlightAware ADS-B (KJVY)
11:48PM 38.4137 -85.8020 193° South 155 178 4,000  Descending FlightAware ADS-B (KJVY)
11:48PM 38.4018 -85.8041 180° South 151 174 4,100 240 Climbing FlightAware ADS-B (KJVY)
11:48PM 38.3958 -85.8030 169° South 154 177 4,100  Level FlightAware ADS-B (KBRY)
11:49PM 38.3858 -85.7995 163° South 156 180 4,100  Level FlightAware ADS-B (KJVY)
11:49PM 38.3714 -85.7944 165° South 149 171 4,100  Level FlightAware ADS-B (KJVY)
11:49PM 38.3598 -85.7906 165° South 150 173 4,100 -600 Level FlightAware ADS-B (KJVY)
11:50PM 38.3328 -85.7825 165° South 160 184 3,500 -780 Descending Indianapolis Center
11:51PM 38.2936 -85.7692 165° South 153 176 2,700 -660 Descending Indianapolis Center
11:52PM 38.2475 -85.7522 164° South 152 175 2,200 -540 Descending Indianapolis Center